Flight Track Log - Related Links

Times and Time Zones

All times are in EST time to prevent confusion due to time zone crossing. See the TAI397 flight status page for this flight to view local times or setup timezone preferences in your user account.

Time Position Orientation Groundspeed Altitude Reporting Facility
EST Latitude Longitude Course Direction KTS MPH feet Rate Location/Type
Mon 03:29:40 PM 25.7961 -80.2675 111° Southeast 149 171 1,100  Level Miami Center
Mon 03:30:47 PM 25.7747 -80.2069 111° Southeast 233 268 2,300 1,271 Climbing Miami Center
Mon 03:31:38 PM 25.7467 -80.1461 117° Southeast 272 313 3,600 2,182 Climbing Miami Center
Mon 03:31:42 PM 25.7383 -80.1506 206° Southwest 280 322 4,300 3,200 Climbing Miami Center
Mon 03:32:38 PM 25.6794 -80.1675 195° South 290 334 6,800 2,845 Climbing Miami Center
Mon 03:33:38 PM 25.6097 -80.2047 206° Southwest 284 327 9,800 2,167 Climbing Miami Center
Mon 03:35:38 PM 25.4244 -80.2686 214° Southwest 339 390 13,300 2,000 Climbing Miami Center
Mon 03:36:38 PM 25.3275 -80.3003 196° South 359 413 15,800 2,200 Climbing Miami Center
Mon 03:37:38 PM 25.2286 -80.3342 197° South 371 427 17,700 1,800 Climbing Miami Center
Mon 03:38:38 PM 25.1253 -80.3725 199° South 383 441 19,400 1,800 Climbing Miami Center
Mon 03:39:38 PM 25.0178 -80.4086 197° South 393 452 21,300 1,800 Climbing Miami Center
Mon 03:40:38 PM 24.9083 -80.4467 198° South 407 468 23,000 1,650 Climbing Miami Center
Mon 03:41:38 PM 24.7967 -80.4822 196° South 412 474 24,600 1,400 Climbing Miami Center
Mon 03:42:38 PM 24.6872 -80.5203 198° South 417 480 25,800 1,350 Climbing Miami Center
Mon 03:43:38 PM 24.5692 -80.5578 196° South 424 488 27,300 1,300 Climbing Miami Center
Mon 03:44:38 PM 24.4578 -80.5933 196° South 429 494 28,400 1,233 Climbing Miami Center
Mon 03:46:38 PM 24.2239 -80.6728 204° Southwest 434 499 31,000 1,175 Climbing Miami Center
Mon 03:48:38 PM 24.0003 -80.7503 194° South 424 488 33,100 1,050 Climbing Miami Center
Mon 03:50:00 PM 23.8541 -80.7899 194° South  Level FlightAware Approximate
Mon 03:57:00 PM 23.1145 -81.0297 197° South  Level FlightAware Approximate
Mon 03:58:00 PM 23.0089 -81.0640 197° South  Level FlightAware Approximate
Mon 03:59:00 PM 22.9033 -81.0982 197° South  Level FlightAware Approximate
Mon 04:00:00 PM 22.7978 -81.1324 197° South  Level FlightAware Approximate
Mon 04:01:00 PM 22.6922 -81.1666 197° South  Level FlightAware Approximate
Mon 04:02:00 PM 22.5866 -81.2007 197° South  Level FlightAware Approximate
Mon 04:03:00 PM 22.4810 -81.2347 197° South  Level FlightAware Approximate
Mon 04:04:00 PM 22.3754 -81.2687 197° South  Level FlightAware Approximate
Mon 04:05:00 PM 22.2698 -81.3027 197° South  Level FlightAware Approximate
Mon 04:06:00 PM 22.1642 -81.3365 197° South  Level FlightAware Approximate
Mon 04:07:00 PM 22.0586 -81.3704 197° South  Level FlightAware Approximate
Mon 04:08:00 PM 21.9529 -81.4042 197° South  Level FlightAware Approximate
Mon 04:09:00 PM 21.8473 -81.4379 197° South  Level FlightAware Approximate
Mon 04:10:00 PM 21.7416 -81.4716 196° South  Level FlightAware Approximate
Mon 04:11:00 PM 21.6360 -81.5052 196° South  Level FlightAware Approximate
Mon 04:12:00 PM 21.5365 -81.5545 209° Southwest  Level FlightAware Approximate
Mon 04:13:00 PM 21.4401 -81.6118 209° Southwest  Level FlightAware Approximate
Mon 04:14:00 PM 21.3436 -81.6691 209° Southwest  Level FlightAware Approximate
Mon 04:15:00 PM 21.2472 -81.7263 209° Southwest  Level FlightAware Approximate
Mon 04:16:00 PM 21.1507 -81.7834 209° Southwest  Level FlightAware Approximate
Mon 04:17:00 PM 21.0543 -81.8404 209° Southwest  Level FlightAware Approximate
Mon 04:18:00 PM 20.9578 -81.8974 209° Southwest  Level FlightAware Approximate
Mon 04:19:00 PM 20.8612 -81.9542 209° Southwest  Level FlightAware Approximate
Mon 04:20:00 PM 20.7647 -82.0110 209° Southwest  Level FlightAware Approximate
Mon 04:21:00 PM 20.6682 -82.0678 209° Southwest  Level FlightAware Approximate
Mon 04:22:00 PM 20.5716 -82.1245 209° Southwest  Level FlightAware Approximate
Mon 04:23:00 PM 20.4750 -82.1810 209° Southwest  Level FlightAware Approximate
Mon 04:24:00 PM 20.3784 -82.2376 209° Southwest  Level FlightAware Approximate
Mon 04:25:00 PM 20.2818 -82.2940 209° Southwest  Level FlightAware Approximate
Mon 04:26:00 PM 20.1851 -82.3504 209° Southwest  Level FlightAware Approximate
Mon 04:27:00 PM 20.0869 -82.4000 180° South  Level FlightAware Approximate
Mon 04:28:00 PM 19.9854 -82.4412 205° Southwest  Level FlightAware Approximate
Mon 04:29:00 PM 19.8860 -82.4916 205° Southwest  Level FlightAware Approximate
Mon 04:30:00 PM 19.7865 -82.5420 205° Southwest  Level FlightAware Approximate
Mon 04:31:00 PM 19.6870 -82.5923 205° Southwest  Level FlightAware Approximate
Mon 04:32:00 PM 19.5875 -82.6425 205° Southwest  Level FlightAware Approximate
Mon 04:33:00 PM 19.4880 -82.6926 205° Southwest  Level FlightAware Approximate
Mon 04:34:00 PM 19.3885 -82.7427 205° Southwest  Level FlightAware Approximate
Mon 04:35:00 PM 19.2889 -82.7928 205° Southwest  Level FlightAware Approximate
Mon 04:36:00 PM 19.1893 -82.8428 205° Southwest  Level FlightAware Approximate
Mon 04:37:00 PM 19.0898 -82.8927 205° Southwest  Level FlightAware Approximate
Mon 04:38:00 PM 18.9902 -82.9425 205° Southwest  Level FlightAware Approximate
Mon 04:39:00 PM 18.8906 -82.9923 205° Southwest  Level FlightAware Approximate
Mon 04:40:00 PM 18.7910 -83.0421 205° Southwest  Level FlightAware Approximate
Mon 04:41:00 PM 18.6913 -83.0917 205° Southwest  Level FlightAware Approximate
Mon 04:42:00 PM 18.5917 -83.1413 205° Southwest  Level FlightAware Approximate
Mon 04:43:00 PM 18.4921 -83.1909 205° Southwest  Level FlightAware Approximate
Mon 04:44:00 PM 18.3924 -83.2404 205° Southwest  Level FlightAware Approximate
Mon 04:45:00 PM 18.2927 -83.2898 205° Southwest  Level FlightAware Approximate
Mon 04:46:00 PM 18.1930 -83.3392 205° Southwest  Level FlightAware Approximate
Mon 04:47:00 PM 18.0933 -83.3886 205° Southwest  Level FlightAware Approximate
Mon 04:48:00 PM 17.9936 -83.4379 205° Southwest  Level FlightAware Approximate
Mon 04:49:00 PM 17.8939 -83.4871 205° Southwest  Level FlightAware Approximate
Mon 04:50:00 PM 17.7941 -83.5362 205° Southwest  Level FlightAware Approximate
Mon 04:51:00 PM 17.6941 -83.5847 205° Southwest  Level FlightAware Approximate
Mon 04:52:00 PM 17.5941 -83.6332 205° Southwest  Level FlightAware Approximate
Mon 04:53:00 PM 17.4940 -83.6816 205° Southwest  Level FlightAware Approximate
Mon 04:54:00 PM 17.3940 -83.7300 205° Southwest  Level FlightAware Approximate
Mon 04:55:00 PM 17.2939 -83.7783 205° Southwest  Level FlightAware Approximate
Mon 04:56:00 PM 17.1938 -83.8265 205° Southwest  Level FlightAware Approximate
Mon 04:57:00 PM 17.0938 -83.8747 205° Southwest  Level FlightAware Approximate
Mon 04:58:00 PM 16.9937 -83.9229 205° Southwest  Level FlightAware Approximate
Mon 04:59:00 PM 16.8936 -83.9710 205° Southwest  Level FlightAware Approximate
Mon 05:00:00 PM 16.7934 -84.0190 205° Southwest  Level FlightAware Approximate
Mon 05:01:00 PM 16.6933 -84.0670 205° Southwest  Level FlightAware Approximate
Mon 05:02:00 PM 16.5932 -84.1150 205° Southwest  Level FlightAware Approximate
Mon 05:03:00 PM 16.4930 -84.1629 205° Southwest  Level FlightAware Approximate
Mon 05:04:00 PM 16.3929 -84.2107 205° Southwest  Level FlightAware Approximate
Mon 05:05:00 PM 16.2927 -84.2585 205° Southwest  Level FlightAware Approximate
Mon 05:06:00 PM 16.1925 -84.3063 205° Southwest  Level FlightAware Approximate
Mon 05:07:00 PM 16.0923 -84.3540 205° Southwest  Level FlightAware Approximate
Mon 05:08:00 PM 15.9921 -84.4016 205° Southwest  Level FlightAware Approximate
Mon 05:09:00 PM 15.8919 -84.4492 205° Southwest  Level FlightAware Approximate
Mon 05:10:00 PM 15.7916 -84.4968 205° Southwest  Level FlightAware Approximate
Mon 05:11:00 PM 15.6914 -84.5443 205° Southwest  Level FlightAware Approximate
Mon 05:12:00 PM 15.5912 -84.5918 205° Southwest  Level FlightAware Approximate
Mon 05:13:00 PM 15.4909 -84.6392 205° Southwest  Level FlightAware Approximate
Mon 05:14:00 PM 15.3906 -84.6866 204° Southwest  Level FlightAware Approximate
Mon 05:15:00 PM 15.2903 -84.7339 204° Southwest  Level FlightAware Approximate
Mon 05:16:00 PM 15.1901 -84.7812 204° Southwest  Level FlightAware Approximate
Mon 05:17:00 PM 15.0898 -84.8284 204° Southwest  Level FlightAware Approximate
Mon 05:18:00 PM 14.9895 -84.8756 204° Southwest  Level FlightAware Approximate
Mon 05:19:00 PM 14.8891 -84.9228 204° Southwest  Level FlightAware Approximate
Mon 05:20:00 PM 14.7890 -84.9703 205° Southwest  Level FlightAware Approximate
Mon 05:21:00 PM 14.6889 -85.0180 205° Southwest  Level FlightAware Approximate
Mon 05:22:00 PM 14.5889 -85.0656 205° Southwest  Level FlightAware Approximate
Mon 05:23:00 PM 14.4888 -85.1131 205° Southwest  Level FlightAware Approximate
Mon 05:24:00 PM 14.3886 -85.1606 205° Southwest  Level FlightAware Approximate
Mon 05:25:00 PM 14.2885 -85.2081 205° Southwest  Level FlightAware Approximate
Mon 05:26:00 PM 14.1884 -85.2554 204° Southwest  Level FlightAware Approximate
Mon 05:27:00 PM 14.0880 -85.3023 204° Southwest  Level FlightAware Approximate
Mon 05:28:00 PM 13.9876 -85.3491 204° Southwest  Level FlightAware Approximate
Mon 05:29:00 PM 13.8868 -85.3948 203° Southwest  Level FlightAware Approximate
Mon 05:30:00 PM 13.7868 -85.4421 213° Southwest  Level FlightAware Approximate
Mon 05:31:00 PM 13.6896 -85.4949 204° Southwest  Level FlightAware Approximate
Mon 05:32:00 PM 13.5893 -85.5417 204° Southwest  Level FlightAware Approximate
Mon 05:33:00 PM 13.4889 -85.5884 204° Southwest  Level FlightAware Approximate
Mon 05:34:00 PM 13.3884 -85.6349 204° Southwest  Level FlightAware Approximate
Mon 05:35:00 PM 13.2879 -85.6812 204° Southwest  Level FlightAware Approximate
Mon 05:36:00 PM 13.1863 -85.7250 203° Southwest  Level FlightAware Approximate
Mon 05:37:00 PM 13.0846 -85.7685 203° Southwest  Level FlightAware Approximate
Mon 05:38:00 PM 12.9823 -85.8104 201° Southwest  Level FlightAware Approximate
Mon 05:39:00 PM 12.8797 -85.8516 203° Southwest  Level FlightAware Approximate
Mon 05:40:00 PM 12.7786 -85.8966 203° Southwest  Level FlightAware Approximate
Mon 05:41:00 PM 12.6770 -85.9402 202° Southwest  Level FlightAware Approximate
Mon 05:42:00 PM 12.5749 -85.9827 202° Southwest  Level FlightAware Approximate
Mon 05:43:00 PM 12.4725 -86.0243 201° Southwest  Level FlightAware Approximate
Mon 05:44:00 PM 12.3699 -86.0654 201° Southwest  Level FlightAware Approximate
Mon 05:45:00 PM 12.2717 -86.1113 201° Southwest  Level FlightAware Approximate
Mon 05:46:00 PM 12.1670 -86.1457 194° South  Level FlightAware Approximate
Mon 05:47:00 PM 12.1500 -86.1500 194° South  Level FlightAware Approximate
Mon 05:48:00 PM 12.1415 -86.1682 194° South  Level Estimated
Mon 05:49:00 PM 12.1415 -86.1682 194° South  Level Estimated
Mon 05:50:00 PM 12.1415 -86.1682 194° South  Level Estimated
Mon 05:51:00 PM 12.1415 -86.1682 194° South  Level Estimated
Mon 05:52:00 PM 12.1415 -86.1682 194° South  Level Estimated
Mon 05:53:00 PM 12.1415 -86.1682 194° South  Level Estimated
Mon 05:54:00 PM 12.1415 -86.1682 194° South  Level Estimated
Mon 05:55:00 PM 12.1415 -86.1682 194° South  Level Estimated
Mon 05:56:00 PM 12.1415 -86.1682 194° South  Level Estimated
Mon 05:57:00 PM 12.1415 -86.1682 194° South  Level Estimated
Mon 05:58:00 PM 12.1415 -86.1682 194° South  Level Estimated
Mon 05:59:00 PM 12.1415 -86.1682 194° South  Level Estimated
Mon 06:00:00 PM 12.1415 -86.1682 194° South  Level Estimated

Login

Don't have an account? Register now (free) for customized features, flight alerts, and more!